Time;durP1;ratioP1;P1;durP2;ratioP2;P2;SDS_P1;SDS_P2;PMS_P1;PMS_P2;Temp;Humidity;BMP_temperature;BMP_pressure;BME280_temperature;BME280_humidity;BME280_pressure;Samples;Min_cycle;Max_cycle;Signal;HPM_P1;HPM_P2
2022/08/02 00:01:48;;;;;;;5.88;2.17;;;;;;;28.09;33.64;101942.03;5114981;28;20023;-76
2022/08/02 00:04:13;;;;;;;3.05;2.33;;;;;;;28.27;33.22;101939.06;5096234;28;20110;-77
2022/08/02 00:06:39;;;;;;;5.50;2.45;;;;;;;27.05;35.50;101934.38;5114003;28;20028;-76
2022/08/02 00:09:05;;;;;;;4.45;2.05;;;;;;;27.73;34.39;101918.47;5114708;28;20027;-76
2022/08/02 00:11:30;;;;;;;3.53;1.95;;;;;;;27.56;34.27;101923.13;5114770;28;20055;-76
2022/08/02 00:13:56;;;;;;;2.75;2.20;;;;;;;27.22;34.90;101909.16;5113947;28;20034;-76
2022/08/02 00:16:21;;;;;;;7.47;2.00;;;;;;;26.98;35.26;101910.69;5096119;28;20394;-77
2022/08/02 00:18:47;;;;;;;5.55;1.88;;;;;;;26.78;35.14;101909.25;5114716;28;20050;-76
2022/08/02 00:21:12;;;;;;;4.72;1.67;;;;;;;26.77;35.21;101907.53;5095533;28;20069;-77
2022/08/02 00:23:38;;;;;;;6.18;1.88;;;;;;;26.35;36.03;101904.66;5096145;28;20038;-76
2022/08/02 00:26:03;;;;;;;2.95;1.70;;;;;;;26.47;35.55;101911.09;5114518;28;20030;-77
2022/08/02 00:28:28;;;;;;;3.63;1.50;;;;;;;25.82;36.76;101905.03;5095012;28;20027;-76
2022/08/02 00:30:56;;;;;;;1.42;1.30;;;;;;;26.75;35.88;101905.81;5096058;28;20062;-77
2022/08/02 00:33:21;;;;;;;2.80;1.60;;;;;;;27.14;34.68;101911.44;5095393;28;20027;-76
2022/08/02 00:35:47;;;;;;;7.72;1.85;;;;;;;26.67;35.70;101912.59;5095959;28;20051;-77
2022/08/02 00:38:12;;;;;;;2.78;1.40;;;;;;;27.12;34.36;101908.03;5095902;28;20030;-76
2022/08/02 00:40:39;;;;;;;3.70;1.50;;;;;;;27.21;34.26;101902.03;5095227;28;20136;-76
2022/08/02 00:43:09;;;;;;;3.15;1.52;;;;;;;26.36;35.34;101898.34;5095479;28;20503;-76
2022/08/02 00:45:37;;;;;;;2.42;1.20;;;;;;;26.51;34.90;101896.56;5095581;28;20391;-76
2022/08/02 00:48:05;;;;;;;2.33;1.40;;;;;;;26.62;35.15;101901.28;5094689;28;20019;-76
2022/08/02 00:50:31;;;;;;;4.13;1.63;;;;;;;27.03;34.02;101895.19;5113863;28;20028;-77
2022/08/02 00:52:57;;;;;;;4.18;1.33;;;;;;;27.10;33.94;101893.81;5095555;28;20034;-76
2022/08/02 00:55:22;;;;;;;5.85;1.48;;;;;;;27.23;33.36;101892.09;5094905;28;20024;-76
2022/08/02 00:57:48;;;;;;;2.15;1.17;;;;;;;26.02;35.45;101884.28;5095334;28;20019;-76
2022/08/02 01:00:14;;;;;;;4.50;1.30;;;;;;;27.02;33.58;101890.78;5113629;28;20064;-76
2022/08/02 01:02:40;;;;;;;6.78;1.67;;;;;;;27.08;34.12;101890.41;5094569;28;20075;-76
2022/08/02 01:05:06;;;;;;;3.33;1.40;;;;;;;27.34;33.17;101879.78;5095408;28;20498;-76
2022/08/02 01:07:31;;;;;;;5.00;1.63;;;;;;;27.13;33.52;101882.03;5095113;28;20510;-76
2022/08/02 01:09:57;;;;;;;3.90;1.50;;;;;;;27.55;33.04;101872.22;5094600;28;20024;-77
2022/08/02 01:12:22;;;;;;;5.18;1.50;;;;;;;26.92;34.12;101883.28;5095193;28;20023;-76
2022/08/02 01:14:51;;;;;;;3.50;2.05;;;;;;;26.64;34.11;101880.56;5113416;28;20027;-76
2022/08/02 01:17:46;;;;;;;4.55;2.17;;;;;;;26.81;33.99;101883.13;5094001;28;20043;-76
2022/08/02 01:20:30;;;;;;;5.72;2.28;;;;;;;26.91;34.35;101878.03;5113316;28;20450;-77
2022/08/02 01:23:20;;;;;;;7.28;2.05;;;;;;;27.24;33.44;101863.41;5094533;28;20293;-76
2022/08/02 01:26:07;;;;;;;2.92;2.00;;;;;;;26.45;35.00;101873.69;5095276;28;20027;-76
2022/08/02 01:28:35;;;;;;;3.10;2.05;;;;;;;26.16;35.39;101876.31;5113062;28;20024;-77
2022/08/02 01:31:13;;;;;;;5.20;2.30;;;;;;;26.86;33.77;101878.34;5094220;28;20027;-76
2022/08/02 01:33:50;;;;;;;4.05;1.73;;;;;;;26.65;34.53;101876.94;5113016;28;20049;-76
2022/08/02 01:36:19;;;;;;;3.58;2.13;;;;;;;26.55;34.47;101877.50;5113238;28;20027;-76
2022/08/02 01:38:49;;;;;;;6.32;2.33;;;;;;;26.41;34.38;101881.03;5093558;28;20020;-76
2022/08/02 01:41:18;;;;;;;5.22;1.98;;;;;;;26.73;34.02;101885.41;5112616;28;20020;-76
2022/08/02 01:43:45;;;;;;;4.32;1.98;;;;;;;26.26;34.78;101881.97;5112066;28;20109;-76
2022/08/02 01:46:13;;;;;;;6.22;1.70;;;;;;;26.88;33.68;101879.09;5094983;28;20015;-76
2022/08/02 01:48:40;;;;;;;5.70;1.95;;;;;;;26.22;35.22;101869.72;5094841;28;20537;-76
2022/08/02 01:51:07;;;;;;;4.85;2.40;;;;;;;26.31;34.83;101876.31;5112182;28;20062;-76
2022/08/02 01:53:34;;;;;;;6.47;2.00;;;;;;;26.19;34.94;101876.09;5094530;28;20012;-77
2022/08/02 01:56:01;;;;;;;3.42;2.10;;;;;;;25.68;35.90;101870.16;5095066;28;20020;-76
2022/08/02 01:58:32;;;;;;;3.83;1.92;;;;;;;25.21;37.07;101867.38;5112019;28;20058;-76
2022/08/02 02:00:59;;;;;;;3.92;2.00;;;;;;;25.81;35.94;101870.31;5094330;28;20554;-76
2022/08/02 02:03:27;;;;;;;5.22;2.17;;;;;;;25.36;36.92;101864.81;5094332;28;20030;-76
2022/08/02 02:05:55;;;;;;;5.95;2.10;;;;;;;25.70;36.40;101873.59;5094004;28;20383;-76
2022/08/02 02:08:35;;;;;;;4.00;1.98;;;;;;;26.38;34.95;101869.66;5094267;28;20019;-76
2022/08/02 02:11:02;;;;;;;3.72;1.80;;;;;;;26.28;35.23;101863.13;5094334;28;20070;-77
2022/08/02 02:13:29;;;;;;;3.90;2.10;;;;;;;26.81;33.93;101872.38;5093821;28;20024;-76
2022/08/02 02:15:55;;;;;;;3.75;2.17;;;;;;;26.99;33.63;101869.50;5094379;28;20034;-76
2022/08/02 02:18:23;;;;;;;8.00;2.30;;;;;;;26.82;34.08;101863.38;5094325;28;20046;-76
2022/08/02 02:20:50;;;;;;;6.10;2.22;;;;;;;26.45;34.34;101849.56;5111807;28;20099;-76
2022/08/02 02:23:16;;;;;;;6.47;2.10;;;;;;;25.78;35.54;101844.56;5112143;28;20031;-76
2022/08/02 02:25:42;;;;;;;3.55;1.88;;;;;;;26.12;34.91;101841.72;5094382;28;20080;-75
2022/08/02 02:28:18;;;;;;;4.53;2.00;;;;;;;26.23;35.22;101856.22;5094135;28;20053;-75
2022/08/02 02:30:48;;;;;;;3.17;2.10;;;;;;;26.62;34.48;101861.06;5093979;28;20072;-76
2022/08/02 02:33:17;;;;;;;3.47;2.40;;;;;;;26.65;34.59;101861.72;5093174;28;20102;-76
2022/08/02 02:35:46;;;;;;;4.32;2.17;;;;;;;26.82;34.14;101863.38;5112229;28;20046;-76
2022/08/02 02:38:15;;;;;;;2.58;2.05;;;;;;;26.83;34.56;101854.41;5094149;28;20022;-76
2022/08/02 02:40:43;;;;;;;2.05;1.80;;;;;;;25.85;35.51;101850.44;5093318;28;20019;-76
2022/08/02 02:43:11;;;;;;;2.80;2.40;;;;;;;26.47;34.91;101852.13;5093726;28;20040;-76
2022/08/02 02:45:39;;;;;;;6.50;2.05;;;;;;;26.56;34.19;101847.06;5112241;28;20103;-76
2022/08/02 02:48:06;;;;;;;6.55;2.05;;;;;;;26.38;34.89;101838.34;5111524;28;20057;-76
2022/08/02 02:50:32;;;;;;;6.20;2.08;;;;;;;26.70;34.56;101840.88;5094648;28;20023;-76
2022/08/02 02:52:59;;;;;;;2.47;1.50;;;;;;;26.29;34.15;101838.06;5116301;28;20028;-76
2022/08/02 02:55:26;;;;;;;5.25;1.75;;;;;;;26.59;33.88;101846.88;5115504;28;20072;-76
2022/08/02 02:57:52;;;;;;;1.83;1.50;;;;;;;26.37;33.68;101841.13;5097624;28;20035;-77
2022/08/02 03:01:26;;;;;;;4.80;1.50;;;;;;;26.11;35.23;101840.88;5097590;28;20420;-76
2022/08/02 03:03:03;;;;;;;5.07;1.70;;;;;;;26.82;33.18;101836.56;5115071;28;20110;-76
2022/08/02 03:05:29;;;;;;;5.57;1.80;;;;;;;26.24;34.24;101841.00;5097659;28;20119;-76
2022/08/02 03:07:54;;;;;;;4.78;1.63;;;;;;;25.41;35.37;101836.00;5115448;28;20088;-76
2022/08/02 03:10:20;;;;;;;3.97;1.67;;;;;;;25.81;34.75;101832.81;5097490;28;20406;-76
2022/08/02 03:12:45;;;;;;;4.90;1.90;;;;;;;25.99;34.27;101838.91;5097506;28;20019;-75
2022/08/02 03:15:12;;;;;;;6.95;1.55;;;;;;;25.91;34.67;101837.56;5114931;28;20027;-76
2022/08/02 03:17:43;;;;;;;2.80;1.33;;;;;;;26.22;33.40;101827.69;5097514;28;20070;-76
2022/08/02 03:20:17;;;;;;;2.40;1.30;;;;;;;26.36;32.83;101826.00;5097713;28;20055;-76
2022/08/02 03:22:44;;;;;;;1.58;1.30;;;;;;;26.02;33.76;101814.63;5096491;28;20034;-76
2022/08/02 03:25:11;;;;;;;2.80;1.30;;;;;;;26.02;33.44;101814.63;5097039;28;20107;-76
2022/08/02 03:27:37;;;;;;;4.80;1.40;;;;;;;26.36;33.05;101817.94;5097191;28;20023;-76
2022/08/02 03:30:05;;;;;;;4.60;1.58;;;;;;;25.37;33.99;101808.53;5114819;28;20399;-76
2022/08/02 03:32:32;;;;;;;3.58;1.88;;;;;;;25.34;34.46;101797.16;5097167;28;20049;-76
2022/08/02 03:34:57;;;;;;;3.47;1.35;;;;;;;25.84;33.86;101796.03;5097107;28;20587;-77
2022/08/02 03:37:24;;;;;;;4.03;1.40;;;;;;;26.11;33.45;101791.81;5096413;28;20030;-76
2022/08/02 03:39:52;;;;;;;3.50;1.65;;;;;;;25.56;34.13;101794.97;5115149;28;20106;-76
2022/08/02 03:42:19;;;;;;;3.35;1.67;;;;;;;26.27;33.25;101792.59;5096960;28;20085;-76
2022/08/02 03:44:46;;;;;;;6.13;1.70;;;;;;;26.28;33.43;101798.81;5095733;28;20044;-76
2022/08/02 03:47:11;;;;;;;6.95;1.70;;;;;;;25.77;33.54;101815.22;5096753;28;20072;-76
2022/08/02 03:49:37;;;;;;;3.00;1.35;;;;;;;25.95;33.78;101818.63;5096419;28;20023;-76
2022/08/02 03:52:03;;;;;;;1.73;1.20;;;;;;;26.20;33.81;101810.88;5096191;28;20024;-76
2022/08/02 03:54:28;;;;;;;2.40;1.23;;;;;;;25.99;33.93;101794.22;5115478;28;20027;-76
2022/08/02 03:56:54;;;;;;;10.10;2.00;;;;;;;25.73;34.19;101790.44;5096812;28;20435;-76
2022/08/02 03:59:19;;;;;;;1.80;1.30;;;;;;;24.95;34.82;101785.94;5096269;28;20486;-77
2022/08/02 04:01:45;;;;;;;4.90;1.40;;;;;;;25.38;34.62;101777.31;5096424;28;20027;-77
2022/08/02 04:04:10;;;;;;;2.85;1.55;;;;;;;25.42;34.63;101786.00;5113839;28;20016;-77
2022/08/02 04:06:36;;;;;;;2.72;1.42;;;;;;;25.46;34.87;101785.75;5096761;28;20483;-77
2022/08/02 04:09:01;;;;;;;7.13;1.90;;;;;;;24.77;35.77;101787.81;5096594;28;20022;-77
2022/08/02 04:11:29;;;;;;;4.85;1.40;;;;;;;26.04;33.74;101780.59;5096294;28;20672;-77
2022/08/02 04:13:55;;;;;;;2.55;1.60;;;;;;;25.00;35.51;101785.66;5096516;28;20031;-77
2022/08/02 04:16:28;;;;;;;2.70;1.60;;;;;;;26.02;34.27;101787.84;5096644;28;20016;-77
2022/08/02 04:19:01;;;;;;;;;;;;;;;25.09;35.44;101782.47;5114538;28;20102;-76
2022/08/02 04:21:31;;;;;;;2.10;1.40;;;;;;;25.74;34.34;101781.44;5096516;28;19912;-77
2022/08/02 04:23:57;;;;;;;6.18;1.88;;;;;;;25.91;34.67;101781.31;5096621;28;20032;-77
2022/08/02 04:26:24;;;;;;;3.70;1.33;;;;;;;25.94;33.99;101785.63;5095798;28;20024;-77
2022/08/02 04:28:50;;;;;;;4.43;1.45;;;;;;;26.08;34.45;101782.16;5096285;28;20051;-77
2022/08/02 04:31:18;;;;;;;4.75;1.58;;;;;;;25.97;34.46;101784.59;5096420;28;20019;-76
2022/08/02 04:33:45;;;;;;;2.08;1.20;;;;;;;26.11;34.45;101789.97;5095624;28;20024;-76
2022/08/02 04:36:12;;;;;;;2.05;1.50;;;;;;;26.15;34.35;101796.88;5096170;28;20024;-77
2022/08/02 04:38:38;;;;;;;3.25;1.60;;;;;;;25.55;35.58;101785.22;5096001;28;20031;-77
2022/08/02 04:41:03;;;;;;;5.13;1.40;;;;;;;25.26;35.60;101788.69;5095619;28;20507;-77
2022/08/02 04:43:29;;;;;;;3.63;2.33;;;;;;;26.11;34.25;101791.81;5095984;28;20055;-77
2022/08/02 04:45:54;;;;;;;3.08;1.58;;;;;;;25.39;35.25;101789.75;5114230;28;20368;-77
2022/08/02 04:48:21;;;;;;;4.65;1.65;;;;;;;25.24;35.19;101789.63;5095202;28;20069;-76
2022/08/02 04:50:47;;;;;;;4.28;2.00;;;;;;;25.20;36.07;101790.75;5095691;28;20023;-77
2022/08/02 04:53:12;;;;;;;7.50;2.05;;;;;;;25.47;35.47;101776.78;5095819;28;20034;-77
2022/08/02 04:55:38;;;;;;;3.70;1.88;;;;;;;25.98;34.56;101783.59;5113514;28;20027;-77
2022/08/02 04:58:03;;;;;;;3.67;1.92;;;;;;;25.68;35.14;101787.19;5095684;28;20020;-77
2022/08/02 05:00:29;;;;;;;12.48;3.25;;;;;;;25.98;34.89;101786.28;5081950;28;20252;-77
2022/08/02 05:02:58;;;;;;;3.42;1.50;;;;;;;25.79;34.40;101787.41;5028140;28;20123;-78
2022/08/02 05:05:24;;;;;;;4.10;1.60;;;;;;;24.62;36.38;101802.00;5046050;28;20028;-77
2022/08/02 05:07:50;;;;;;;6.28;1.48;;;;;;;25.57;35.46;101788.66;5095064;28;20027;-77
2022/08/02 05:10:15;;;;;;;9.02;1.67;;;;;;;24.75;36.74;101779.00;5095517;28;20030;-77
2022/08/02 05:12:41;;;;;;;2.13;1.85;;;;;;;25.26;35.81;101772.63;5113937;28;20503;-77
2022/08/02 05:15:07;;;;;;;7.50;2.08;;;;;;;25.43;36.31;101780.59;5113038;28;20023;-77
2022/08/02 05:17:33;;;;;;;5.35;1.77;;;;;;;25.45;36.30;101778.69;5113566;28;20035;-77
2022/08/02 05:19:58;;;;;;;2.88;1.80;;;;;;;25.82;35.52;101784.53;5113640;28;20390;-77
2022/08/02 05:22:23;;;;;;;7.32;2.55;;;;;;;26.08;34.89;101791.03;5112827;28;20023;-76
2022/08/02 05:24:49;;;;;;;4.88;1.77;;;;;;;26.78;33.96;101784.09;5113220;28;20019;-77
2022/08/02 05:27:14;;;;;;;7.85;2.13;;;;;;;27.03;33.55;101791.41;5095046;28;20027;-76
2022/08/02 05:29:40;;;;;;;6.85;1.95;;;;;;;26.24;34.20;101787.41;5112763;28;20425;-77
2022/08/02 05:32:05;;;;;;;6.30;1.65;;;;;;;27.01;33.81;101782.63;5095027;28;20020;-76
2022/08/02 05:34:31;;;;;;;3.00;1.92;;;;;;;26.82;33.94;101788.31;5095075;28;20040;-77
2022/08/02 05:36:56;;;;;;;3.95;2.13;;;;;;;27.21;33.84;101788.50;5094088;28;20027;-77
2022/08/02 05:39:21;;;;;;;4.57;2.13;;;;;;;26.69;34.37;101798.03;5094667;28;20022;-77
2022/08/02 05:41:47;;;;;;;7.18;2.50;;;;;;;27.19;33.47;101783.22;5094794;28;20061;-77
2022/08/02 05:44:13;;;;;;;5.32;2.05;;;;;;;27.47;33.36;101783.25;5093959;28;20038;-77
2022/08/02 05:46:38;;;;;;;5.07;1.77;;;;;;;27.36;33.23;101766.03;5094785;28;20031;-77
2022/08/02 05:49:04;;;;;;;4.55;2.05;;;;;;;26.77;34.77;101768.09;5094494;28;20081;-77
2022/08/02 05:52:10;;;;;;;9.15;2.15;;;;;;;27.40;33.48;101762.19;5094212;28;20138;-77
2022/08/02 05:54:38;;;;;;;4.88;2.28;;;;;;;27.56;33.37;101756.66;5013325;28;20025;-77
2022/08/02 05:57:07;;;;;;;3.22;1.83;;;;;;;27.13;34.38;101770.22;5029421;28;20036;-77
2022/08/02 05:59:46;;;;;;;5.07;2.35;;;;;;;27.07;35.16;101771.47;5054227;28;20061;-77
2022/08/02 06:02:34;;;;;;;8.25;2.65;;;;;;;26.75;35.51;101777.09;5094412;28;20027;-77
2022/08/02 06:05:13;;;;;;;6.15;2.47;;;;;;;26.63;36.01;101774.31;5093752;28;20028;-77
2022/08/02 06:07:43;;;;;;;4.22;2.50;;;;;;;27.04;35.32;101770.84;5112711;28;20101;-77
2022/08/02 06:10:14;;;;;;;8.13;2.47;;;;;;;26.79;35.69;101771.53;5094116;28;20023;-77
2022/08/02 06:12:53;;;;;;;5.63;3.33;;;;;;;26.83;36.08;101773.94;5093564;28;20028;-77
2022/08/02 06:15:19;;;;;;;6.63;3.30;;;;;;;27.57;35.00;101757.50;5112662;28;20026;-77
2022/08/02 06:17:45;;;;;;;8.75;3.40;;;;;;;26.79;36.49;101755.44;5112476;28;20176;-77
2022/08/02 06:20:12;;;;;;;4.43;3.38;;;;;;;26.67;36.75;101757.09;5093580;28;20068;-77
2022/08/02 06:22:43;;;;;;;6.28;3.60;;;;;;;26.46;37.32;101765.53;5094113;28;20023;-77
2022/08/02 06:25:12;;;;;;;7.30;3.90;;;;;;;27.06;37.04;101766.22;5111827;28;20027;-77
2022/08/02 06:27:40;;;;;;;6.20;3.85;;;;;;;26.61;37.46;101768.19;5098600;28;20081;-77
2022/08/02 06:30:07;;;;;;;7.97;4.72;;;;;;;27.70;36.08;101757.56;5098627;28;20042;-77
2022/08/02 06:32:33;;;;;;;11.02;5.00;;;;;;;26.41;38.44;101757.75;5098091;28;20043;-77
2022/08/02 06:34:59;;;;;;;11.50;5.50;;;;;;;26.17;40.05;101762.84;5116714;28;20100;-78
2022/08/02 06:37:43;;;;;;;13.55;5.07;;;;;;;27.63;37.39;101757.09;5098465;28;20084;-77
2022/08/02 06:40:26;;;;;;;9.35;5.20;;;;;;;28.24;36.60;101746.63;5098075;28;20031;-77
2022/08/02 06:43:17;;;;;;;10.90;5.50;;;;;;;28.78;36.09;101755.38;5116734;28;20052;-77
2022/08/02 06:45:43;;;;;;;9.13;6.10;;;;;;;28.45;37.08;101762.19;5098241;28;20086;-77
2022/08/02 06:48:09;;;;;;;11.52;6.68;;;;;;;28.58;36.95;101756.81;5097943;28;20023;-77
2022/08/02 06:50:37;;;;;;;13.45;6.47;;;;;;;29.47;35.64;101749.44;5098649;28;20026;-77
2022/08/02 06:53:05;;;;;;;11.30;6.15;;;;;;;30.77;34.23;101760.88;5097776;28;20076;-77
2022/08/02 06:55:31;;;;;;;7.85;6.45;;;;;;;30.79;35.25;101761.59;5116141;28;20047;-77
2022/08/02 06:57:57;;;;;;;13.15;7.13;;;;;;;31.32;33.99;101750.06;5098070;28;20053;-77
2022/08/02 07:00:22;;;;;;;15.02;6.80;;;;;;;32.88;31.20;101752.78;5115965;28;20020;-77
2022/08/02 07:02:48;;;;;;;12.95;6.82;;;;;;;34.35;29.84;101762.66;5098169;28;20114;-77
2022/08/02 07:05:14;;;;;;;11.23;6.88;;;;;;;35.31;28.01;101754.03;5098127;28;20023;-78
2022/08/02 07:07:39;;;;;;;10.98;7.05;;;;;;;36.08;26.95;101758.88;5115734;28;20395;-78
2022/08/02 07:10:05;;;;;;;11.82;7.60;;;;;;;34.41;28.85;101762.06;5116089;28;20098;-78
2022/08/02 07:12:32;;;;;;;11.68;7.40;;;;;;;33.42;29.76;101758.69;5116057;28;20027;-77
2022/08/02 07:14:59;;;;;;;12.07;6.70;;;;;;;36.32;26.37;101752.75;5097387;28;20015;-77
2022/08/02 07:17:24;;;;;;;11.48;7.13;;;;;;;35.99;28.54;101747.13;5116061;28;20065;-77
2022/08/02 07:19:50;;;;;;;10.00;6.53;;;;;;;37.83;25.84;101754.53;5097846;28;20023;-78
2022/08/02 07:22:17;;;;;;;9.65;7.28;;;;;;;38.00;25.56;101752.63;5097125;28;20380;-78
2022/08/02 07:24:42;;;;;;;13.10;6.90;;;;;;;36.66;26.39;101749.97;5097385;28;20045;-78
2022/08/02 07:27:08;;;;;;;11.27;6.35;;;;;;;37.66;25.49;101740.91;5097559;28;20023;-77
2022/08/02 07:29:34;;;;;;;9.93;6.65;;;;;;;37.08;26.16;101748.22;5097074;28;20023;-78
2022/08/02 07:31:59;;;;;;;9.32;6.07;;;;;;;35.90;27.23;101743.50;5097287;28;20035;-78
2022/08/02 07:34:24;;;;;;;10.73;6.40;;;;;;;38.69;24.39;101741.09;5097183;28;20020;-78
2022/08/02 07:36:50;;;;;;;8.07;5.72;;;;;;;39.75;23.67;101735.84;5096873;28;20026;-77
2022/08/02 07:39:15;;;;;;;11.18;5.97;;;;;;;38.23;24.44;101744.56;5115531;28;20024;-77
2022/08/02 07:41:41;;;;;;;9.95;5.63;;;;;;;37.48;25.72;101735.66;5097053;28;20030;-78
2022/08/02 07:44:06;;;;;;;9.73;5.78;;;;;;;35.22;27.63;101736.81;5114656;28;20054;-77
2022/08/02 07:46:32;;;;;;;11.10;5.80;;;;;;;34.58;29.26;101734.13;5097014;28;20125;-77
2022/08/02 07:48:58;;;;;;;9.00;5.72;;;;;;;33.79;30.15;101736.25;5097314;28;20425;-77
2022/08/02 07:51:24;;;;;;;7.05;5.35;;;;;;;35.18;28.38;101727.28;5096576;28;20023;-77
2022/08/02 07:53:49;;;;;;;12.88;5.57;;;;;;;38.39;24.76;101729.13;5096996;28;20069;-78
2022/08/02 07:56:14;;;;;;;11.40;6.35;;;;;;;37.30;26.30;101730.38;5096740;28;20028;-78
2022/08/02 07:58:40;;;;;;;7.50;5.65;;;;;;;38.21;25.52;101727.50;5096588;28;20027;-77
2022/08/02 08:01:06;;;;;;;8.50;5.72;;;;;;;36.82;26.16;101721.09;5096808;28;20034;-78
2022/08/02 08:03:31;;;;;;;7.72;5.60;;;;;;;35.60;27.89;101729.34;5095951;28;20407;-77
2022/08/02 08:05:57;;;;;;;7.50;5.28;;;;;;;36.98;26.41;101726.56;5096695;28;20031;-78
2022/08/02 08:08:22;;;;;;;9.27;6.20;;;;;;;34.67;29.22;101722.31;5096504;28;20110;-77
2022/08/02 08:10:48;;;;;;;10.63;5.90;;;;;;;35.92;27.50;101722.44;5095951;28;20050;-77
2022/08/02 08:13:14;;;;;;;11.25;6.50;;;;;;;37.15;26.86;101724.72;5096462;28;20020;-77
2022/08/02 08:15:39;;;;;;;11.40;6.40;;;;;;;36.84;27.89;101735.44;5096669;28;20019;-78
2022/08/02 08:18:05;;;;;;;11.80;6.72;;;;;;;36.78;27.03;101738.78;5095872;28;20050;-77
2022/08/02 08:20:30;;;;;;;10.57;6.82;;;;;;;35.81;28.60;101736.28;5096259;28;20016;-77
2022/08/02 08:22:56;;;;;;;10.38;5.82;;;;;;;35.39;29.13;101718.81;5096226;28;20493;-77
2022/08/02 08:25:21;;;;;;;10.85;5.60;;;;;;;37.25;26.87;101727.28;5113628;28;20020;-77
2022/08/02 08:27:51;;;;;;;10.13;5.85;;;;;;;34.35;30.54;101727.38;5096140;28;20024;-77
2022/08/02 08:30:17;;;;;;;7.90;5.80;;;;;;;33.35;31.54;101724.19;5096205;28;20028;-77
2022/08/02 08:32:43;;;;;;;7.65;5.78;;;;;;;36.21;28.29;101714.94;5113604;28;20058;-78
2022/08/02 08:35:08;;;;;;;8.20;5.55;;;;;;;34.72;30.16;101721.00;5095685;28;20059;-77
2022/08/02 08:37:35;;;;;;;6.53;4.53;;;;;;;35.53;28.83;101719.25;5114373;28;20447;-77
2022/08/02 08:40:00;;;;;;;7.70;5.00;;;;;;;33.15;31.83;101721.44;5095228;28;20024;-77
2022/08/02 08:42:26;;;;;;;8.85;5.15;;;;;;;36.14;28.61;101722.88;5095646;28;20030;-77
2022/08/02 08:44:53;;;;;;;8.40;5.75;;;;;;;33.62;31.23;101718.88;5095437;28;20036;-76
2022/08/02 08:47:22;;;;;;;8.43;4.88;;;;;;;37.32;27.26;101722.88;5113531;28;20035;-78
2022/08/02 08:49:50;;;;;;;7.70;4.68;;;;;;;38.11;26.71;101719.47;5095189;28;20051;-77
2022/08/02 08:52:18;;;;;;;6.72;4.43;;;;;;;39.42;24.40;101718.88;5095447;28;20471;-78
2022/08/02 08:54:47;;;;;;;7.95;4.47;;;;;;;37.88;25.69;101724.88;5095079;28;20026;-77
2022/08/02 08:57:13;;;;;;;6.22;4.13;;;;;;;37.99;26.05;101731.81;5113804;28;20368;-77
2022/08/02 08:59:38;;;;;;;6.28;4.60;;;;;;;37.59;25.84;101726.28;5094794;28;20030;-77
2022/08/02 09:02:04;;;;;;;8.38;4.32;;;;;;;35.07;29.31;101730.25;5095468;28;20024;-77
2022/08/02 09:04:30;;;;;;;5.30;4.32;;;;;;;34.75;29.83;101731.59;5095369;28;20030;-77
2022/08/02 09:06:55;;;;;;;8.48;5.18;;;;;;;37.47;25.88;101724.94;5112949;28;20460;-77
2022/08/02 09:09:21;;;;;;;15.20;4.55;;;;;;;37.26;25.85;101728.13;5113617;28;20103;-77
2022/08/02 09:11:46;;;;;;;7.80;4.10;;;;;;;35.19;28.15;101723.56;5113468;28;20467;-77
2022/08/02 09:14:25;;;;;;;6.80;4.13;;;;;;;35.58;28.56;101728.63;5094764;28;20016;-78
2022/08/02 09:16:51;;;;;;;7.00;5.00;;;;;;;35.07;28.26;101730.25;5113657;28;20103;-77
2022/08/02 09:19:24;;;;;;;9.20;4.65;;;;;;;35.62;27.67;101732.75;5094917;28;20431;-77
2022/08/02 09:21:59;;;;;;;4.90;4.18;;;;;;;33.05;31.30;101734.13;5094490;28;20028;-77
2022/08/02 09:24:24;;;;;;;4.38;3.65;;;;;;;34.52;28.95;101731.16;5095266;28;20418;-77
2022/08/02 09:26:50;;;;;;;6.80;4.38;;;;;;;35.06;28.25;101728.53;5095413;28;20119;-77
2022/08/02 09:29:17;;;;;;;7.03;3.53;;;;;;;33.12;30.45;101738.81;5094315;28;20027;-77
2022/08/02 09:31:43;;;;;;;6.40;3.60;;;;;;;35.16;28.83;101734.75;5094983;28;20034;-77
2022/08/02 09:34:09;;;;;;;6.07;4.03;;;;;;;32.91;31.20;101741.66;5094958;28;20016;-77
2022/08/02 09:36:41;;;;;;;6.35;3.50;;;;;;;32.75;31.68;101746.75;5112502;28;20023;-76
2022/08/02 09:39:09;;;;;;;5.00;3.40;;;;;;;33.74;30.47;101743.09;5095073;28;20035;-77
2022/08/02 09:41:39;;;;;;;8.95;3.63;;;;;;;34.40;28.92;101744.06;5094664;28;20130;-77
2022/08/02 09:44:07;;;;;;;4.28;3.00;;;;;;;34.98;27.73;101737.44;5090851;28;20052;-76
2022/08/02 09:46:37;;;;;;;4.18;2.83;;;;;;;34.14;29.01;101736.56;5091467;28;20491;-77
2022/08/02 09:49:08;;;;;;;6.80;3.10;;;;;;;34.76;27.81;101739.56;5091855;28;20468;-78
2022/08/02 09:51:37;;;;;;;4.25;2.90;;;;;;;35.13;27.74;101735.91;5091367;28;20028;-77
2022/08/02 09:54:05;;;;;;;4.68;2.80;;;;;;;35.10;27.55;101736.19;5091330;28;20102;-77
2022/08/02 09:56:43;;;;;;;7.28;3.25;;;;;;;36.92;25.37;101746.34;5091800;28;20111;-77
2022/08/02 09:59:09;;;;;;;5.95;2.80;;;;;;;34.53;27.33;101758.13;5091260;28;20024;-77
2022/08/02 10:01:35;;;;;;;4.90;2.83;;;;;;;33.35;29.38;101754.00;5091702;28;20440;-77
2022/08/02 10:04:03;;;;;;;3.90;2.92;;;;;;;34.20;29.08;101754.09;5091769;28;20036;-78
2022/08/02 10:06:30;;;;;;;6.82;3.13;;;;;;;35.24;27.51;101759.25;5092386;28;20032;-77
2022/08/02 10:08:56;;;;;;;5.22;3.08;;;;;;;34.96;27.45;101764.75;5091447;28;20028;-77
2022/08/02 10:11:23;;;;;;;3.35;2.70;;;;;;;35.51;26.39;101757.47;5090779;28;20027;-77
2022/08/02 10:13:49;;;;;;;3.65;2.88;;;;;;;35.08;27.50;101753.69;5092187;28;20035;-77
2022/08/02 10:16:22;;;;;;;3.80;2.60;;;;;;;35.86;26.56;101746.69;5092370;28;20483;-77
2022/08/02 10:18:51;;;;;;;5.47;2.85;;;;;;;35.65;27.35;101740.59;5090775;28;20035;-77
2022/08/02 10:21:29;;;;;;;3.35;2.80;;;;;;;35.65;25.93;101740.59;5090915;28;20030;-77
2022/08/02 10:24:09;;;;;;;3.67;2.47;;;;;;;36.09;25.41;101736.13;5091916;28;20084;-77
2022/08/02 10:26:37;;;;;;;3.15;2.10;;;;;;;35.35;26.41;101738.31;5092202;28;20463;-77
2022/08/02 10:29:03;;;;;;;4.75;2.35;;;;;;;35.83;25.87;101736.97;5091067;28;20103;-77
2022/08/02 10:31:35;;;;;;;4.75;2.40;;;;;;;33.93;27.87;101742.22;5091552;28;20106;-77
2022/08/02 10:34:03;;;;;;;2.58;2.10;;;;;;;33.89;28.32;101741.66;5090951;28;20024;-77
2022/08/02 10:36:32;;;;;;;3.80;2.20;;;;;;;35.74;26.37;101737.94;5092164;28;20032;-77
2022/08/02 10:39:00;;;;;;;6.20;2.33;;;;;;;36.48;24.72;101730.22;5090403;28;20494;-77
2022/08/02 10:41:43;;;;;;;4.18;2.72;;;;;;;36.00;25.91;101730.63;5090839;28;20027;-77
2022/08/02 10:44:23;;;;;;;3.22;2.42;;;;;;;36.83;25.09;101729.09;5090220;28;20044;-77
2022/08/02 10:46:49;;;;;;;5.95;2.78;;;;;;;35.09;27.08;101729.06;5091502;28;20031;-77
2022/08/02 10:49:19;;;;;;;3.78;2.47;;;;;;;37.45;24.68;101727.78;5092148;28;20028;-77
2022/08/02 10:51:50;;;;;;;4.60;2.53;;;;;;;35.35;26.11;101722.00;5092225;28;20488;-77
2022/08/02 10:54:21;;;;;;;7.18;2.88;;;;;;;34.93;27.29;101724.34;5090176;28;20035;-78
2022/08/02 10:56:51;;;;;;;3.53;2.85;;;;;;;35.14;26.95;101720.44;5090660;28;20073;-78
2022/08/02 10:59:24;;;;;;;4.25;2.90;;;;;;;34.90;26.34;101721.94;5089644;28;20116;-77
2022/08/02 11:01:49;;;;;;;;;;;;;;;34.16;27.95;101734.56;5092199;28;20121;-77
2022/08/02 11:04:14;;;;;;;4.70;2.20;;;;;;;33.85;28.49;101729.38;5091871;28;20299;-77
2022/08/02 11:07:18;;;;;;;4.50;2.25;;;;;;;35.73;26.28;101715.31;5091258;28;20035;-77
2022/08/02 11:09:45;;;;;;;6.45;2.58;;;;;;;36.15;25.98;101716.44;5090606;28;20392;-77
2022/08/02 11:12:15;;;;;;;4.05;2.55;;;;;;;35.77;25.78;101726.75;5091925;28;20031;-77
2022/08/02 11:14:44;;;;;;;4.35;2.45;;;;;;;36.67;24.86;101713.56;5093518;28;20127;-77
2022/08/02 11:17:11;;;;;;;3.72;2.58;;;;;;;36.67;24.79;101710.84;5094165;28;20055;-77
2022/08/02 11:20:13;;;;;;;3.20;2.22;;;;;;;36.95;24.38;101701.56;5094271;28;20016;-77
2022/08/02 11:22:39;;;;;;;4.10;2.97;;;;;;;36.54;25.44;101713.19;5094967;28;20024;-77
2022/08/02 11:25:23;;;;;;;4.38;3.22;;;;;;;35.99;25.95;101715.31;5093697;28;20286;-77
2022/08/02 11:27:57;;;;;;;5.72;3.58;;;;;;;33.37;29.52;101714.06;5094512;28;20038;-77
2022/08/02 11:30:24;;;;;;;6.40;3.53;;;;;;;32.83;30.87;101717.16;5093781;28;20027;-77